Time;durP1;ratioP1;P1;durP2;ratioP2;P2;SDS_P1;SDS_P2;PMS_P1;PMS_P2;Temp;Humidity;BMP_temperature;BMP_pressure;BME280_temperature;BME280_humidity;BME280_pressure;Samples;Min_cycle;Max_cycle;Signal;HPM_P1;HPM_P2
2022/03/14 00:01:05;;;;;;;15.93;10.60;;;10.20;50.80;;;;;;5073174;28;20952;-57
2022/03/14 00:03:53;;;;;;;14.50;11.63;;;10.30;51.50;;;;;;5073156;28;20447;-57
2022/03/14 00:06:22;;;;;;;14.40;11.00;;;10.30;51.40;;;;;;5073213;28;20463;-58
2022/03/14 00:08:50;;;;;;;14.43;11.63;;;10.30;51.20;;;;;;5072660;28;20502;-58
2022/03/14 00:11:17;;;;;;;14.47;11.13;;;10.30;51.60;;;;;;5073057;28;20456;-58
2022/03/14 00:13:47;;;;;;;14.70;11.60;;;10.30;51.30;;;;;;5072831;28;20952;-58
2022/03/14 00:16:20;;;;;;;16.10;11.97;;;10.30;51.80;;;;;;5072548;28;20544;-58
2022/03/14 00:18:48;;;;;;;14.70;12.23;;;10.30;51.70;;;;;;5072686;28;20508;-57
2022/03/14 00:21:17;;;;;;;20.23;12.97;;;10.30;51.60;;;;;;5072676;28;20992;-57
2022/03/14 00:23:46;;;;;;;15.27;11.90;;;10.40;51.70;;;;;;5072725;28;20495;-58
2022/03/14 00:26:13;;;;;;;15.30;12.90;;;10.40;51.70;;;;;;5073739;28;20452;-58
2022/03/14 00:28:41;;;;;;;12.90;10.97;;;10.40;51.30;;;;;;5076534;28;20486;-58
2022/03/14 00:31:08;;;;;;;13.73;11.57;;;10.40;50.90;;;;;;5076447;28;20448;-58
2022/03/14 00:33:36;;;;;;;14.87;11.37;;;10.50;50.50;;;;;;5076542;28;20451;-57
2022/03/14 00:36:04;;;;;;;16.47;12.17;;;10.60;50.60;;;;;;5076559;28;20452;-57
2022/03/14 00:38:32;;;;;;;14.30;10.83;;;10.70;50.10;;;;;;5076488;28;20464;-58
2022/03/14 00:41:00;;;;;;;14.13;11.43;;;10.70;47.80;;;;;;5076430;28;20476;-57
2022/03/14 00:43:28;;;;;;;14.57;11.67;;;10.70;46.50;;;;;;5076055;28;20454;-58
2022/03/14 00:45:55;;;;;;;17.00;12.53;;;10.80;46.30;;;;;;5076138;28;20452;-57
2022/03/14 00:48:22;;;;;;;14.10;11.90;;;10.90;46.30;;;;;;5075897;28;20567;-58
2022/03/14 00:50:50;;;;;;;17.40;13.00;;;10.90;46.40;;;;;;5075807;28;20486;-57
2022/03/14 00:53:18;;;;;;;17.43;13.47;;;10.90;47.40;;;;;;5076365;28;20481;-57
2022/03/14 00:55:45;;;;;;;19.73;13.80;;;10.90;47.20;;;;;;5075864;28;20507;-58
2022/03/14 00:58:13;;;;;;;14.83;10.87;;;10.90;48.10;;;;;;5075712;28;20460;-57
2022/03/14 01:00:41;;;;;;;13.73;11.60;;;10.80;48.20;;;;;;5076205;28;20448;-57
2022/03/14 01:03:08;;;;;;;15.60;11.60;;;10.70;48.60;;;;;;5076125;28;20471;-57
2022/03/14 01:05:35;;;;;;;11.53;10.30;;;10.80;48.70;;;;;;5075695;28;20890;-57
2022/03/14 01:08:03;;;;;;;13.37;11.23;;;10.80;47.80;;;;;;5075740;28;20487;-58
2022/03/14 01:10:30;;;;;;;14.33;10.77;;;10.90;48.40;;;;;;5075872;28;20453;-57
2022/03/14 01:12:58;;;;;;;14.83;11.60;;;10.90;50.30;;;;;;5075387;28;20453;-57
2022/03/14 01:15:26;;;;;;;13.73;11.90;;;10.90;51.80;;;;;;5075784;28;20502;-58
2022/03/14 01:17:54;;;;;;;17.63;12.97;;;11.00;51.10;;;;;;5075842;28;20464;-58
2022/03/14 01:20:22;;;;;;;21.07;15.53;;;10.90;51.90;;;;;;5075700;28;20451;-57
2022/03/14 01:22:49;;;;;;;18.47;14.37;;;10.90;52.90;;;;;;5075478;28;20448;-58
2022/03/14 01:25:16;;;;;;;21.67;15.27;;;11.00;55.50;;;;;;5076028;28;20452;-57
2022/03/14 01:27:43;;;;;;;21.80;16.40;;;11.00;57.10;;;;;;5075487;28;20464;-58
2022/03/14 01:30:11;;;;;;;21.60;16.90;;;11.00;59.50;;;;;;5075248;28;20459;-58
2022/03/14 01:32:40;;;;;;;24.07;16.07;;;10.90;61.80;;;;;;5075642;28;20444;-57
2022/03/14 01:35:07;;;;;;;19.80;15.47;;;10.80;65.40;;;;;;5075405;28;20544;-57
2022/03/14 01:37:35;;;;;;;25.40;16.00;;;10.90;66.70;;;;;;5074551;28;20464;-58
2022/03/14 01:40:02;;;;;;;21.57;17.60;;;10.90;69.10;;;;;;5075460;28;20447;-57
2022/03/14 01:42:29;;;;;;;16.80;13.87;;;11.00;69.80;;;;;;5075005;28;20462;-57
2022/03/14 01:44:56;;;;;;;17.27;15.30;;;11.00;71.80;;;;;;5074899;28;20448;-56
2022/03/14 01:47:24;;;;;;;18.90;15.40;;;11.00;73.70;;;;;;5075235;28;20507;-56
2022/03/14 01:49:52;;;;;;;18.93;15.37;;;11.00;74.50;;;;;;5074606;28;20545;-56
2022/03/14 01:52:20;;;;;;;19.00;15.23;;;11.00;76.10;;;;;;5075072;28;20548;-56
2022/03/14 01:54:48;;;;;;;21.50;15.07;;;11.00;77.50;;;;;;5075120;28;20455;-56
2022/03/14 01:57:16;;;;;;;16.00;14.23;;;11.00;80.50;;;;;;5074591;28;20571;-56
2022/03/14 01:59:44;;;;;;;17.37;14.90;;;10.90;83.60;;;;;;5074892;28;20484;-57
2022/03/14 02:02:11;;;;;;;19.73;15.30;;;10.90;86.30;;;;;;5074563;28;20448;-57
2022/03/14 02:04:38;;;;;;;16.67;14.30;;;10.90;89.10;;;;;;5074910;28;20454;-56
2022/03/14 02:07:07;;;;;;;14.90;13.30;;;10.90;90.10;;;;;;5074720;28;20471;-56
2022/03/14 02:09:34;;;;;;;17.73;14.77;;;10.90;90.80;;;;;;5074669;28;20523;-56
2022/03/14 02:12:09;;;;;;;19.87;15.00;;;10.90;91.30;;;;;;5074514;28;20808;-57
2022/03/14 02:14:39;;;;;;;18.83;14.47;;;10.80;92.70;;;;;;5074334;28;20454;-56
2022/03/14 02:17:08;;;;;;;18.20;14.93;;;10.80;93.00;;;;;;5074831;28;20546;-57
2022/03/14 02:19:35;;;;;;;18.67;14.83;;;10.80;94.30;;;;;;5074464;28;20513;-56
2022/03/14 02:22:05;;;;;;;18.83;14.87;;;10.80;94.90;;;;;;5074572;28;20452;-56
2022/03/14 02:24:32;;;;;;;18.07;15.37;;;10.70;95.50;;;;;;5074413;28;20448;-56
2022/03/14 02:26:59;;;;;;;22.10;15.57;;;10.60;97.20;;;;;;5074042;28;20468;-56
2022/03/14 02:29:26;;;;;;;23.00;16.40;;;10.60;98.20;;;;;;5074391;28;20482;-56
2022/03/14 02:31:54;;;;;;;20.63;14.73;;;10.70;98.40;;;;;;5074272;28;20449;-56
2022/03/14 02:34:21;;;;;;;18.47;15.30;;;10.70;99.90;;;;;;5074231;28;20440;-56
2022/03/14 02:36:49;;;;;;;23.63;14.80;;;10.70;99.90;;;;;;5074489;28;20475;-57
2022/03/14 02:39:17;;;;;;;19.37;15.10;;;10.80;99.90;;;;;;5074179;28;20447;-56
2022/03/14 02:41:45;;;;;;;18.13;15.67;;;10.70;99.90;;;;;;5074108;28;20451;-56
2022/03/14 02:44:13;;;;;;;19.97;15.90;;;10.70;99.90;;;;;;5074177;28;20448;-56
2022/03/14 02:46:41;;;;;;;22.30;15.93;;;10.70;99.90;;;;;;5073955;28;20464;-56
2022/03/14 02:49:10;;;;;;;23.97;15.90;;;10.70;99.90;;;;;;5072844;28;20533;-57
2022/03/14 02:51:39;;;;;;;17.73;14.23;;;10.80;99.90;;;;;;5073868;28;20448;-57
2022/03/14 02:54:06;;;;;;;17.20;14.97;;;10.70;99.90;;;;;;5074052;28;20444;-56
2022/03/14 02:56:36;;;;;;;19.40;16.60;;;10.80;99.90;;;;;;5073286;28;20565;-57
2022/03/14 02:59:03;;;;;;;19.13;15.33;;;10.70;99.90;;;;;;5073805;28;20444;-56
2022/03/14 03:01:30;;;;;;;20.60;16.03;;;10.70;99.90;;;;;;5073625;28;21013;-57
2022/03/14 03:03:57;;;;;;;17.83;14.40;;;10.40;99.90;;;;;;5073446;28;20935;-57
2022/03/14 03:06:24;;;;;;;24.90;16.47;;;10.40;99.90;;;;;;5073671;28;20466;-56
2022/03/14 03:08:52;;;;;;;17.33;14.37;;;10.20;99.90;;;;;;5073408;28;20848;-55
2022/03/14 03:11:20;;;;;;;15.10;11.33;;;10.10;99.90;;;;;;5073270;28;20988;-56
2022/03/14 03:13:50;;;;;;;19.27;14.07;;;10.10;99.90;;;;;;5073617;28;20456;-57
2022/03/14 03:16:17;;;;;;;16.17;13.30;;;10.10;99.90;;;;;;5073668;28;20452;-57
2022/03/14 03:18:45;;;;;;;19.00;13.93;;;10.10;99.90;;;;;;5073232;28;20930;-56
2022/03/14 03:21:12;;;;;;;16.70;13.17;;;9.90;99.90;;;;;;5073409;28;20455;-56
2022/03/14 03:23:40;;;;;;;14.40;12.00;;;9.90;99.90;;;;;;5073344;28;20819;-56
2022/03/14 03:26:11;;;;;;;14.43;12.13;;;9.90;99.90;;;;;;5073496;28;20448;-56
2022/03/14 03:28:39;;;;;;;15.37;12.60;;;10.00;99.90;;;;;;5073049;28;20870;-56
2022/03/14 03:31:09;;;;;;;13.40;11.90;;;10.00;99.90;;;;;;5073379;28;20470;-57
2022/03/14 03:33:38;;;;;;;17.10;12.83;;;10.00;99.90;;;;;;5073545;28;20435;-57
2022/03/14 03:36:06;;;;;;;12.60;10.50;;;9.90;99.90;;;;;;5073399;28;20461;-57
2022/03/14 03:38:33;;;;;;;13.93;11.17;;;10.00;99.90;;;;;;5072951;28;20464;-56
2022/03/14 03:41:00;;;;;;;13.80;10.90;;;10.00;99.90;;;;;;5073125;28;20448;-56
2022/03/14 03:43:27;;;;;;;14.60;11.37;;;9.90;99.90;;;;;;5072972;28;20448;-56
2022/03/14 03:45:55;;;;;;;13.87;11.23;;;10.00;99.90;;;;;;5073268;28;20479;-56
2022/03/14 03:48:23;;;;;;;12.57;11.27;;;10.00;99.90;;;;;;5073091;28;20599;-56
2022/03/14 03:50:50;;;;;;;15.57;11.73;;;10.00;99.90;;;;;;5072589;28;20571;-57
2022/03/14 03:53:18;;;;;;;14.83;10.90;;;10.00;99.90;;;;;;5073186;28;20787;-56
2022/03/14 03:55:45;;;;;;;12.60;10.20;;;9.90;99.90;;;;;;5072013;28;20480;-57
2022/03/14 03:58:12;;;;;;;13.00;10.20;;;9.80;99.90;;;;;;5073072;28;20464;-56
2022/03/14 04:00:39;;;;;;;11.60;9.90;;;9.80;99.90;;;;;;5074540;28;20480;-56
2022/03/14 04:03:07;;;;;;;11.63;10.40;;;9.80;99.90;;;;;;5077003;28;20923;-56
2022/03/14 04:05:39;;;;;;;13.50;10.90;;;9.90;99.90;;;;;;5077052;28;20456;-56
2022/03/14 04:08:10;;;;;;;10.57;9.57;;;9.90;99.90;;;;;;5076766;28;20468;-56
2022/03/14 04:10:38;;;;;;;11.33;10.13;;;9.80;99.90;;;;;;5076953;28;20468;-56
2022/03/14 04:13:06;;;;;;;10.43;8.37;;;9.80;99.90;;;;;;5076763;28;20788;-56
2022/03/14 04:15:42;;;;;;;7.53;6.57;;;9.90;99.90;;;;;;5076916;28;20453;-56
2022/03/14 04:18:10;;;;;;;6.93;5.50;;;9.80;99.90;;;;;;5076515;28;20954;-56
2022/03/14 04:20:41;;;;;;;5.03;4.57;;;9.80;99.90;;;;;;5076808;28;20859;-57
2022/03/14 04:23:08;;;;;;;6.17;5.57;;;9.80;99.90;;;;;;5076970;28;20439;-56
2022/03/14 04:25:36;;;;;;;6.30;5.80;;;9.70;99.90;;;;;;5076727;28;20505;-56
2022/03/14 04:28:03;;;;;;;6.83;5.00;;;9.50;99.90;;;;;;5076563;28;20468;-56
2022/03/14 04:30:32;;;;;;;6.00;5.40;;;9.30;99.90;;;;;;5076422;28;20526;-56
2022/03/14 04:32:59;;;;;;;5.73;5.20;;;9.30;99.90;;;;;;5076600;28;20451;-56
2022/03/14 04:35:26;;;;;;;6.17;5.57;;;9.10;99.90;;;;;;5076291;28;20456;-56
2022/03/14 04:37:55;;;;;;;7.53;4.80;;;9.00;99.90;;;;;;5076262;28;20474;-56
2022/03/14 04:40:23;;;;;;;5.43;4.93;;;9.00;99.90;;;;;;5076431;28;20440;-56
2022/03/14 04:42:50;;;;;;;6.70;5.90;;;9.10;99.90;;;;;;5076406;28;20448;-56
2022/03/14 04:45:17;;;;;;;5.50;5.10;;;9.20;99.90;;;;;;5076531;28;20452;-56
2022/03/14 04:47:44;;;;;;;6.07;5.20;;;9.20;99.90;;;;;;5076063;28;20547;-56
2022/03/14 04:50:12;;;;;;;5.90;5.10;;;9.30;99.90;;;;;;5075820;28;20479;-56
2022/03/14 04:52:40;;;;;;;6.10;4.73;;;9.30;99.90;;;;;;5076197;28;20448;-56
2022/03/14 04:55:09;;;;;;;8.53;5.67;;;9.20;99.90;;;;;;5075783;28;20513;-56
2022/03/14 04:57:37;;;;;;;5.37;4.87;;;;;;;;;;5076111;28;20464;-56
2022/03/14 05:00:07;;;;;;;6.00;5.50;;;9.20;99.90;;;;;;5076093;28;20476;-56
2022/03/14 05:02:35;;;;;;;5.60;5.10;;;9.30;99.90;;;;;;5075892;28;20895;-56
2022/03/14 05:05:03;;;;;;;5.77;5.07;;;9.40;99.90;;;;;;5075914;28;20455;-56
2022/03/14 05:07:30;;;;;;;5.60;5.10;;;9.30;99.90;;;;;;5075609;28;20476;-56
2022/03/14 05:09:57;;;;;;;7.77;5.43;;;9.30;99.90;;;;;;5075705;28;20990;-56
2022/03/14 05:12:25;;;;;;;6.67;6.17;;;9.40;99.90;;;;;;5074683;28;20458;-57
2022/03/14 05:14:53;;;;;;;5.70;5.13;;;9.40;99.90;;;;;;5075535;28;20455;-56
2022/03/14 05:17:20;;;;;;;5.57;5.07;;;9.20;99.90;;;;;;5075882;28;20490;-57
2022/03/14 05:19:47;;;;;;;4.73;4.03;;;9.30;99.90;;;;;;5075637;28;20531;-56
2022/03/14 05:22:14;;;;;;;4.50;3.50;;;9.30;99.90;;;;;;5075498;28;20448;-56
2022/03/14 05:24:41;;;;;;;3.97;3.67;;;9.40;99.90;;;;;;5075747;28;20444;-56
2022/03/14 05:27:09;;;;;;;3.63;3.33;;;9.50;99.90;;;;;;5075282;28;20821;-56
2022/03/14 05:29:37;;;;;;;3.70;3.07;;;9.40;99.90;;;;;;5075177;28;20476;-56
2022/03/14 05:32:05;;;;;;;3.20;2.90;;;9.40;99.90;;;;;;5075456;28;20547;-56
2022/03/14 05:34:34;;;;;;;2.57;2.37;;;9.40;99.90;;;;;;5075250;28;20455;-56
2022/03/14 05:37:01;;;;;;;4.90;2.20;;;9.30;99.90;;;;;;5075514;28;20480;-56
2022/03/14 05:39:28;;;;;;;2.10;1.80;;;9.30;99.90;;;;;;5075333;28;20447;-56
2022/03/14 05:41:56;;;;;;;2.73;2.37;;;9.20;99.90;;;;;;5075353;28;20544;-56
2022/03/14 05:44:23;;;;;;;2.30;2.10;;;9.20;99.90;;;;;;5075217;28;20448;-56
2022/03/14 05:46:51;;;;;;;2.57;2.10;;;9.10;99.90;;;;;;5075036;28;20466;-56
2022/03/14 05:49:19;;;;;;;2.40;2.20;;;9.10;99.90;;;;;;5074828;28;20452;-56
2022/03/14 05:51:46;;;;;;;2.90;2.37;;;9.10;99.90;;;;;;5074689;28;20939;-56
2022/03/14 05:54:13;;;;;;;2.80;2.00;;;9.20;99.90;;;;;;5074627;28;20938;-56
2022/03/14 05:56:40;;;;;;;2.33;2.13;;;9.20;99.90;;;;;;5074653;28;20569;-57
2022/03/14 05:59:10;;;;;;;1.73;1.63;;;9.20;99.90;;;;;;5074927;28;20449;-57
2022/03/14 06:01:38;;;;;;;2.83;2.30;;;9.20;99.90;;;;;;5074854;28;20870;-56
2022/03/14 06:04:06;;;;;;;1.80;1.70;;;9.10;99.90;;;;;;5074551;28;20452;-57
2022/03/14 06:06:34;;;;;;;1.83;1.73;;;9.10;99.90;;;;;;5074979;28;20476;-56
2022/03/14 06:09:01;;;;;;;2.10;1.90;;;9.20;99.90;;;;;;5074764;28;20444;-57
2022/03/14 06:11:29;;;;;;;1.93;1.73;;;9.20;99.90;;;;;;5074690;28;20480;-57
2022/03/14 06:13:56;;;;;;;1.77;1.67;;;9.10;99.90;;;;;;5074290;28;20939;-56
2022/03/14 06:16:24;;;;;;;1.80;1.70;;;8.90;99.90;;;;;;5074194;28;20510;-56
2022/03/14 06:18:52;;;;;;;1.77;1.67;;;9.00;99.90;;;;;;5074114;28;20497;-56
2022/03/14 06:21:20;;;;;;;1.70;1.60;;;8.90;99.90;;;;;;5074312;28;20447;-56
2022/03/14 06:23:47;;;;;;;1.90;1.57;;;8.90;99.90;;;;;;5074172;28;20498;-57
2022/03/14 06:26:14;;;;;;;1.70;1.60;;;8.90;99.90;;;;;;5074397;28;20881;-56
2022/03/14 06:28:42;;;;;;;1.73;1.63;;;8.70;99.90;;;;;;5074357;28;20450;-56
2022/03/14 06:31:11;;;;;;;2.03;1.70;;;8.80;99.90;;;;;;5074123;28;20476;-56
2022/03/14 06:33:38;;;;;;;2.77;1.80;;;8.70;99.90;;;;;;5074195;28;20840;-56
2022/03/14 06:36:07;;;;;;;2.27;1.93;;;8.80;99.90;;;;;;5074003;28;20464;-56
2022/03/14 06:38:36;;;;;;;3.30;1.60;;;8.80;99.90;;;;;;5073571;28;20555;-57
2022/03/14 06:41:04;;;;;;;2.47;2.20;;;8.70;99.90;;;;;;5073969;28;20444;-56
2022/03/14 06:43:33;;;;;;;1.90;1.70;;;8.70;99.90;;;;;;5073966;28;20805;-56
2022/03/14 06:46:00;;;;;;;2.40;1.80;;;8.70;99.90;;;;;;5074122;28;20809;-56
2022/03/14 06:48:27;;;;;;;3.30;2.17;;;8.70;99.90;;;;;;5073607;28;20982;-56
2022/03/14 06:50:54;;;;;;;4.03;2.00;;;8.60;99.90;;;;;;5073470;28;20570;-56
2022/03/14 06:53:22;;;;;;;2.30;1.60;;;8.70;99.90;;;;;;5073745;28;20531;-56
2022/03/14 06:55:50;;;;;;;1.87;1.77;;;8.70;99.90;;;;;;5073189;28;20552;-56
2022/03/14 06:58:17;;;;;;;2.03;1.80;;;8.70;99.90;;;;;;5073564;28;20468;-56
2022/03/14 07:00:45;;;;;;;3.93;2.00;;;8.70;99.90;;;;;;5074021;28;20451;-56
2022/03/14 07:03:14;;;;;;;3.43;1.67;;;8.80;99.90;;;;;;5073212;28;20934;-56
2022/03/14 07:05:41;;;;;;;2.70;1.87;;;8.80;99.90;;;;;;5072972;28;20464;-56
2022/03/14 07:08:09;;;;;;;1.90;1.50;;;8.80;99.90;;;;;;5073687;28;20891;-57
2022/03/14 07:10:37;;;;;;;1.60;1.50;;;8.80;99.90;;;;;;5073187;28;20480;-57
2022/03/14 07:13:05;;;;;;;1.97;1.60;;;8.80;99.90;;;;;;5073090;28;21009;-56
2022/03/14 07:15:33;;;;;;;3.03;1.80;;;8.80;99.90;;;;;;5073576;28;20501;-56
2022/03/14 07:18:00;;;;;;;1.47;1.37;;;8.80;99.90;;;;;;5073323;28;20468;-57
2022/03/14 07:20:28;;;;;;;1.93;1.63;;;8.80;99.90;;;;;;5073477;28;20800;-56
2022/03/14 07:22:57;;;;;;;1.83;1.70;;;8.80;99.90;;;;;;5073263;28;20452;-56
2022/03/14 07:25:26;;;;;;;3.13;1.70;;;8.80;99.90;;;;;;5073411;28;20866;-56
2022/03/14 07:27:54;;;;;;;2.23;1.50;;;8.80;99.90;;;;;;5073297;28;20543;-56
2022/03/14 07:30:23;;;;;;;3.60;2.00;;;9.00;99.90;;;;;;5072813;28;20480;-56
2022/03/14 07:32:51;;;;;;;1.70;1.60;;;9.10;99.90;;;;;;5073073;28;20927;-56
2022/03/14 07:35:18;;;;;;;2.53;1.80;;;9.20;99.90;;;;;;5072591;28;20926;-56
2022/03/14 07:37:46;;;;;;;2.13;1.70;;;9.20;99.90;;;;;;5073090;28;20468;-56
2022/03/14 07:40:14;;;;;;;5.37;1.90;;;9.20;99.90;;;;;;5073403;28;20498;-57
2022/03/14 07:42:43;;;;;;;2.43;2.03;;;9.10;99.90;;;;;;5073044;28;20449;-56
2022/03/14 07:45:11;;;;;;;2.43;2.10;;;9.20;99.90;;;;;;5072803;28;20531;-56
2022/03/14 07:47:40;;;;;;;7.53;1.83;;;9.20;99.90;;;;;;5072889;28;20474;-56
2022/03/14 07:50:09;;;;;;;3.50;1.90;;;9.40;99.90;;;;;;5073091;28;20840;-56
2022/03/14 07:52:37;;;;;;;5.63;2.27;;;9.40;99.90;;;;;;5072743;28;20506;-57
2022/03/14 07:55:06;;;;;;;5.50;1.77;;;9.40;99.90;;;;;;5072744;28;20540;-56
2022/03/14 07:57:34;;;;;;;1.90;1.40;;;9.40;99.90;;;;;;5073334;28;20555;-57
2022/03/14 08:00:02;;;;;;;3.33;2.10;;;9.50;99.90;;;;;;5072948;28;20527;-57
2022/03/14 08:02:29;;;;;;;6.23;1.50;;;9.50;99.90;;;;;;5072720;28;20459;-56
2022/03/14 08:04:57;;;;;;;2.80;2.00;;;9.60;99.90;;;;;;5072727;28;20444;-57
2022/03/14 08:07:26;;;;;;;1.97;1.60;;;9.70;99.90;;;;;;5072951;28;20487;-57
2022/03/14 08:09:54;;;;;;;1.60;1.50;;;9.90;99.90;;;;;;5072684;28;20452;-57
2022/03/14 08:12:22;;;;;;;2.70;1.90;;;10.00;99.90;;;;;;5072763;28;20783;-57
2022/03/14 08:14:50;;;;;;;6.60;2.00;;;10.00;99.90;;;;;;5072872;28;20535;-57
2022/03/14 08:17:18;;;;;;;3.40;1.70;;;10.10;99.90;;;;;;5072542;28;20563;-57
2022/03/14 08:19:45;;;;;;;5.23;1.83;;;10.10;99.90;;;;;;5073012;28;20452;-57
2022/03/14 08:22:13;;;;;;;3.23;1.70;;;10.20;99.90;;;;;;5072726;28;20447;-57
2022/03/14 08:24:40;;;;;;;3.63;1.67;;;10.40;99.90;;;;;;5072529;28;20503;-58
2022/03/14 08:27:08;;;;;;;3.40;2.60;;;10.50;99.90;;;;;;5072931;28;20511;-57
2022/03/14 08:29:35;;;;;;;3.87;1.67;;;10.60;99.90;;;;;;5072989;28;20517;-57
2022/03/14 08:32:02;;;;;;;3.40;1.60;;;10.60;99.90;;;;;;5072671;28;20572;-55
2022/03/14 08:34:30;;;;;;;1.80;1.70;;;10.40;99.90;;;;;;5072376;28;20498;-55
2022/03/14 08:36:58;;;;;;;1.80;1.70;;;10.50;99.90;;;;;;5072186;28;20476;-57
2022/03/14 08:39:26;;;;;;;3.33;1.90;;;10.40;99.90;;;;;;5072605;28;20448;-56
2022/03/14 08:41:53;;;;;;;2.07;1.90;;;10.30;99.90;;;;;;5072112;28;20535;-56
2022/03/14 08:44:20;;;;;;;3.30;1.60;;;10.40;99.90;;;;;;5072674;28;20448;-56
2022/03/14 08:46:48;;;;;;;3.77;1.60;;;10.60;99.90;;;;;;5072755;28;20577;-57
2022/03/14 08:49:15;;;;;;;2.70;1.77;;;10.60;99.90;;;;;;5075778;28;20444;-57
2022/03/14 08:51:42;;;;;;;5.57;1.60;;;10.90;99.90;;;;;;5075774;28;20511;-56
2022/03/14 08:54:09;;;;;;;1.57;1.47;;;10.90;99.90;;;;;;5075661;28;20454;-57
2022/03/14 08:56:38;;;;;;;1.53;1.40;;;10.80;99.90;;;;;;5075440;28;20498;-57
2022/03/14 08:59:05;;;;;;;3.13;2.00;;;10.60;99.90;;;;;;5076011;28;20456;-56
2022/03/14 09:01:33;;;;;;;2.10;1.70;;;10.70;99.90;;;;;;5075850;28;20440;-56
2022/03/14 09:04:01;;;;;;;2.17;1.73;;;10.80;99.90;;;;;;5075864;28;20502;-57
2022/03/14 09:06:29;;;;;;;3.20;2.00;;;10.80;99.90;;;;;;5075892;28;20854;-57
2022/03/14 09:08:56;;;;;;;2.80;1.80;;;10.80;99.90;;;;;;5075743;28;20455;-56
2022/03/14 09:11:24;;;;;;;2.17;1.70;;;10.70;99.90;;;;;;5075769;28;20480;-56
2022/03/14 09:13:53;;;;;;;3.00;1.67;;;10.80;99.90;;;;;;5075668;28;20956;-57
2022/03/14 09:16:20;;;;;;;3.77;1.90;;;10.70;99.90;;;;;;5075837;28;20452;-56
2022/03/14 09:18:47;;;;;;;4.73;2.10;;;10.60;99.00;;;;;;5075333;28;21011;-56
2022/03/14 09:21:14;;;;;;;3.60;2.20;;;10.80;99.70;;;;;;5075493;28;20480;-56
2022/03/14 09:23:42;;;;;;;2.80;2.13;;;11.00;99.80;;;;;;5075560;28;20539;-57
2022/03/14 09:26:10;;;;;;;3.00;2.23;;;11.20;99.70;;;;;;5075552;28;20452;-56
2022/03/14 09:28:39;;;;;;;3.00;2.00;;;11.40;99.20;;;;;;5075800;28;20468;-56
2022/03/14 09:31:08;;;;;;;4.47;2.63;;;11.20;98.30;;;;;;5075735;28;20491;-57
2022/03/14 09:33:35;;;;;;;2.30;1.80;;;11.10;98.50;;;;;;5075195;28;20453;-56
2022/03/14 09:36:03;;;;;;;3.50;2.30;;;11.10;98.80;;;;;;5074835;28;20564;-57
2022/03/14 09:38:30;;;;;;;4.20;2.17;;;11.10;98.20;;;;;;5075029;28;20844;-57
2022/03/14 09:41:03;;;;;;;2.03;1.73;;;11.00;98.50;;;;;;5075290;28;20444;-57
2022/03/14 09:43:31;;;;;;;3.40;1.70;;;11.00;98.00;;;;;;5075131;28;20433;-56
2022/03/14 09:46:01;;;;;;;3.63;1.73;;;11.20;98.20;;;;;;5074819;28;20452;-56
2022/03/14 09:48:36;;;;;;;3.70;2.07;;;11.20;97.10;;;;;;5075057;28;20464;-57
2022/03/14 09:51:05;;;;;;;2.43;1.83;;;11.60;97.10;;;;;;5074188;28;20540;-56
2022/03/14 09:53:34;;;;;;;6.33;2.73;;;12.50;95.90;;;;;;5074154;28;20455;-57
2022/03/14 09:56:02;;;;;;;3.40;1.90;;;13.30;94.10;;;;;;5074571;28;20568;-57
2022/03/14 09:58:29;;;;;;;4.33;2.03;;;13.90;92.20;;;;;;5074520;28;20464;-57
2022/03/14 10:00:59;;;;;;;3.60;2.43;;;14.20;91.50;;;;;;5074585;28;20447;-57
2022/03/14 10:03:26;;;;;;;5.10;2.10;;;15.00;90.40;;;;;;5074435;28;20448;-58
2022/03/14 10:05:55;;;;;;;2.53;1.60;;;;;;;;;;5074632;28;20539;-57
2022/03/14 10:08:23;;;;;;;1.77;1.40;;;15.70;85.30;;;;;;5074361;28;20476;-57
2022/03/14 10:10:50;;;;;;;1.47;1.37;;;16.50;84.00;;;;;;5074403;28;20502;-57
2022/03/14 10:13:17;;;;;;;3.97;1.80;;;16.60;81.60;;;;;;5074685;28;20452;-57
2022/03/14 10:15:45;;;;;;;6.83;2.03;;;16.50;79.30;;;;;;5074632;28;20548;-57
2022/03/14 10:18:14;;;;;;;4.20;2.73;;;16.70;79.40;;;;;;5074516;28;20475;-58
2022/03/14 10:20:56;;;;;;;3.00;1.80;;;17.00;77.80;;;;;;5074241;28;20861;-58
2022/03/14 10:23:33;;;;;;;2.63;1.87;;;17.70;76.90;;;;;;5074440;28;20429;-57
2022/03/14 10:26:01;;;;;;;1.50;1.40;;;17.60;73.40;;;;;;5074099;28;20916;-57
2022/03/14 10:28:31;;;;;;;5.30;2.13;;;17.50;73.90;;;;;;5073822;28;20496;-57
2022/03/14 10:31:01;;;;;;;3.10;1.60;;;17.20;69.50;;;;;;5073837;28;20824;-57
2022/03/14 10:33:30;;;;;;;7.47;2.03;;;16.50;70.40;;;;;;5074170;28;20785;-57
2022/03/14 10:36:00;;;;;;;2.77;1.60;;;16.60;70.10;;;;;;5074047;28;20478;-57
2022/03/14 10:38:28;;;;;;;3.37;1.67;;;16.20;70.10;;;;;;5073991;28;20587;-57
2022/03/14 10:40:57;;;;;;;2.23;1.63;;;16.90;69.10;;;;;;5073844;28;20483;-58
2022/03/14 10:43:30;;;;;;;2.20;1.40;;;16.20;69.70;;;;;;5073875;28;20441;-57
2022/03/14 10:45:58;;;;;;;3.33;2.00;;;16.70;69.40;;;;;;5073985;28;20517;-57
2022/03/14 10:48:38;;;;;;;2.50;1.50;;;;;;;;;;5073523;28;20484;-58
2022/03/14 10:51:08;;;;;;;3.10;1.60;;;17.40;66.40;;;;;;5073468;28;20474;-58
2022/03/14 10:53:41;;;;;;;2.20;2.00;;;17.40;64.00;;;;;;5073754;28;20521;-58
2022/03/14 10:56:08;;;;;;;2.50;2.07;;;18.40;64.80;;;;;;5073450;28;20483;-58
2022/03/14 10:58:36;;;;;;;3.53;1.83;;;17.90;62.90;;;;;;5073327;28;20890;-58
2022/03/14 11:01:05;;;;;;;3.17;1.60;;;17.50;61.20;;;;;;5073510;28;20510;-58
2022/03/14 11:03:34;;;;;;;4.17;2.57;;;17.60;61.40;;;;;;5073957;28;20455;-59
2022/03/14 11:06:02;;;;;;;4.60;1.93;;;;;;;;;;5072977;28;20534;-57
2022/03/14 11:08:33;;;;;;;3.87;1.73;;;18.30;58.30;;;;;;5073533;28;20468;-57
2022/03/14 11:11:02;;;;;;;3.77;1.70;;;18.30;59.70;;;;;;5072944;28;20443;-57
2022/03/14 11:13:29;;;;;;;3.43;1.63;;;17.60;59.70;;;;;;5072799;28;20444;-57
2022/03/14 11:15:57;;;;;;;4.30;1.73;;;18.20;60.90;;;;;;5073407;28;20441;-57
2022/03/14 11:18:24;;;;;;;4.13;1.70;;;18.60;59.30;;;;;;5073164;28;20855;-57
2022/03/14 11:20:53;;;;;;;4.07;1.70;;;19.70;61.30;;;;;;5073103;28;20864;-58
2022/03/14 11:23:23;;;;;;;3.23;1.73;;;18.90;57.70;;;;;;5072654;28;20466;-57
2022/03/14 11:25:52;;;;;;;3.03;1.60;;;18.30;57.10;;;;;;5073371;28;20474;-57
2022/03/14 11:28:22;;;;;;;4.63;2.10;;;18.30;64.90;;;;;;5073570;28;20475;-57
2022/03/14 11:30:59;;;;;;;1.67;1.30;;;18.40;58.20;;;;;;5072942;28;20896;-57
2022/03/14 11:33:26;;;;;;;4.20;1.80;;;18.80;57.00;;;;;;5073106;28;20428;-57
2022/03/14 11:35:54;;;;;;;2.13;1.60;;;19.30;57.10;;;;;;5073478;28;20456;-58
2022/03/14 11:38:21;;;;;;;4.40;1.60;;;18.80;55.90;;;;;;5072846;28;20464;-57
2022/03/14 11:40:52;;;;;;;2.40;1.97;;;17.90;55.80;;;;;;5073113;28;20535;-57
2022/03/14 11:43:19;;;;;;;2.70;1.80;;;18.50;56.20;;;;;;5073285;28;20432;-57
2022/03/14 11:45:47;;;;;;;3.13;2.17;;;18.90;57.30;;;;;;5072874;28;20509;-57
2022/03/14 11:48:15;;;;;;;2.90;1.73;;;19.70;55.80;;;;;;5072675;28;20966;-57
2022/03/14 11:50:44;;;;;;;3.00;1.70;;;19.30;55.70;;;;;;5072986;28;20450;-59
2022/03/14 11:53:19;;;;;;;4.73;2.03;;;19.60;55.70;;;;;;5072633;28;20832;-58
2022/03/14 11:55:56;;;;;;;3.57;2.07;;;18.90;54.70;;;;;;5072711;28;20926;-59
2022/03/14 11:58:32;;;;;;;3.27;1.50;;;19.20;55.60;;;;;;5072762;28;20460;-58
2022/03/14 12:01:00;;;;;;;2.17;1.50;;;19.50;55.60;;;;;;5072651;28;20437;-58
2022/03/14 12:03:38;;;;;;;5.30;1.97;;;19.70;55.60;;;;;;5072968;28;20444;-58
2022/03/14 12:06:05;;;;;;;3.07;1.37;;;19.20;53.90;;;;;;5072422;28;20539;-58
2022/03/14 12:09:00;;;;;;;2.00;1.63;;;19.60;56.00;;;;;;5072455;28;20474;-58
2022/03/14 12:11:44;;;;;;;2.17;1.40;;;20.20;54.60;;;;;;5072777;28;20472;-58
2022/03/14 12:14:13;;;;;;;2.80;1.70;;;19.80;55.00;;;;;;5072915;28;20452;-59
2022/03/14 12:16:43;;;;;;;3.50;1.50;;;20.40;54.60;;;;;;5072402;28;20816;-59
2022/03/14 12:19:31;;;;;;;4.83;1.70;;;20.60;53.70;;;;;;5072636;28;20437;-59
2022/03/14 12:21:59;;;;;;;3.63;1.70;;;18.50;54.20;;;;;;5074886;28;20425;-59
2022/03/14 12:24:48;;;;;;;4.13;1.80;;;18.40;54.40;;;;;;5076341;28;20444;-59
2022/03/14 12:27:21;;;;;;;2.60;2.13;;;18.80;55.00;;;;;;5076964;28;20460;-59
2022/03/14 12:29:50;;;;;;;2.87;1.47;;;;;;;;;;5076449;28;20432;-59
2022/03/14 12:32:37;;;;;;;2.27;1.87;;;19.30;53.10;;;;;;5076457;28;20484;-58
2022/03/14 12:35:11;;;;;;;2.20;1.23;;;19.60;53.60;;;;;;5076386;28;20925;-59
2022/03/14 12:37:44;;;;;;;3.70;1.80;;;19.70;52.80;;;;;;5076121;28;20507;-59
2022/03/14 12:40:35;;;;;;;2.20;1.60;;;20.10;54.50;;;;;;5075957;28;20482;-59
2022/03/14 12:43:24;;;;;;;2.17;1.67;;;20.40;53.00;;;;;;5075573;28;20527;-58
2022/03/14 12:45:54;;;;;;;2.10;1.23;;;18.20;53.40;;;;;;5076064;28;20961;-58
2022/03/14 12:48:24;;;;;;;3.30;1.73;;;17.30;54.50;;;;;;5075799;28;20504;-58
2022/03/14 12:50:57;;;;;;;2.10;1.50;;;17.90;55.30;;;;;;5076112;28;20467;-57
2022/03/14 12:53:46;;;;;;;2.10;1.70;;;18.30;54.70;;;;;;5075536;28;20468;-58